Time;durP1;ratioP1;P1;durP2;ratioP2;P2;SDS_P1;SDS_P2;PMS_P1;PMS_P2;Temp;Humidity;BMP_temperature;BMP_pressure;BME280_temperature;BME280_humidity;BME280_pressure;Samples;Min_cycle;Max_cycle;Signal;HPM_P1;HPM_P2
2024/04/13 00:00:55;;;;;;;1.02;0.93;;;;;;;5.51;87.95;101326.78;4395353;32;42062;-69
2024/04/13 00:03:23;;;;;;;0.10;0.10;;;;;;;5.52;87.95;101320.16;4382307;32;40889;-69
2024/04/13 00:05:51;;;;;;;0.17;0.17;;;;;;;5.52;87.90;101314.63;4395486;32;42142;-68
2024/04/13 00:08:20;;;;;;;0.20;0.20;;;;;;;5.52;87.83;101314.63;4395342;32;42095;-68
2024/04/13 00:10:48;;;;;;;0.57;0.57;;;;;;;5.52;87.69;101308.28;4395201;32;42054;-69
2024/04/13 00:13:16;;;;;;;0.28;0.20;;;;;;;5.53;87.58;101298.88;4395193;32;42252;-69
2024/04/13 00:15:43;;;;;;;0.45;0.45;;;;;;;5.52;87.52;101303.56;4395140;32;42032;-69
2024/04/13 00:18:11;;;;;;;0.20;0.10;;;;;;;5.51;87.49;101301.91;4394969;32;41941;-70
2024/04/13 00:20:38;;;;;;;0.20;0.10;;;;;;;5.51;87.52;101306.62;4394896;32;41982;-68
2024/04/13 00:23:06;;;;;;;0.10;0.10;;;;;;;5.51;87.53;101318.50;4394877;32;41750;-71
2024/04/13 00:25:35;;;;;;;0.20;0.20;;;;;;;5.47;87.59;101311.91;4394913;32;42189;-72
2024/04/13 00:28:05;;;;;;;0.43;0.43;;;;;;;5.49;87.64;101315.19;4397492;32;41817;-69
2024/04/13 00:30:32;;;;;;;;;;;;;;;5.52;87.71;101320.16;4397968;32;41634;-69
2024/04/13 00:33:00;;;;;;;0.10;0.10;;;;;;;5.40;88.07;101311.44;4397679;32;42504;-69
2024/04/13 00:35:27;;;;;;;0.68;0.68;;;;;;;5.48;87.82;101307.19;4397755;32;41800;-68
2024/04/13 00:37:55;;;;;;;0.57;0.57;;;;;;;5.47;87.88;101309.16;4397637;32;42239;-68
2024/04/13 00:40:23;;;;;;;0.95;0.95;;;;;;;5.47;88.01;101303.63;4397766;32;42227;-70
2024/04/13 00:42:52;;;;;;;0.40;0.35;;;;;;;5.48;88.11;101313.56;4397654;32;42136;-70
2024/04/13 00:45:19;;;;;;;0.20;0.20;;;;;;;5.49;88.05;101312.44;4397500;32;42222;-70
2024/04/13 00:47:48;;;;;;;0.82;0.82;;;;;;;5.49;88.00;101315.19;4397569;32;41687;-70
2024/04/13 00:50:18;;;;;;;0.55;0.55;;;;;;;5.50;87.95;101310.50;4397571;32;42279;-70
2024/04/13 00:52:49;;;;;;;0.35;0.35;;;;;;;5.49;87.94;101304.16;4397590;32;42152;-71
2024/04/13 00:55:17;;;;;;;2.55;1.85;;;;;;;5.49;87.82;101304.16;4397351;32;41972;-71
2024/04/13 00:57:45;;;;;;;4.18;2.42;;;;;;;5.47;87.82;101306.38;4397453;32;42197;-71
2024/04/13 01:00:14;;;;;;;0.73;0.52;;;;;;;5.47;87.83;101295.31;4397341;32;42028;-70
2024/04/13 01:02:44;;;;;;;0.65;0.65;;;;;;;5.47;87.75;101298.09;4397333;32;41877;-70
2024/04/13 01:05:13;;;;;;;0.10;0.10;;;;;;;5.48;87.65;101302.50;4397494;32;41644;-69
2024/04/13 01:07:41;;;;;;;;;;;;;;;5.49;87.55;101292.28;4397568;32;42223;-69
2024/04/13 01:10:11;;;;;;;0.17;0.17;;;;;;;5.36;87.80;101288.25;4383918;32;41095;-69
2024/04/13 01:12:43;;;;;;;;;;;;;;;5.43;87.46;101288.72;4384236;32;41736;-70
2024/04/13 01:15:10;;;;;;;0.10;0.10;;;;;;;5.33;87.65;101290.78;4397059;32;42376;-70
2024/04/13 01:17:41;;;;;;;0.10;0.10;;;;;;;5.39;87.43;101286.84;4397092;32;41644;-69
2024/04/13 01:20:09;;;;;;;0.40;0.40;;;;;;;5.38;87.30;101288.78;4397061;32;42186;-70
2024/04/13 01:22:42;;;;;;;1.12;0.80;;;;;;;5.40;87.46;101283.78;4397054;32;42194;-68
2024/04/13 01:25:11;;;;;;;0.62;0.52;;;;;;;5.39;87.41;101287.66;4396968;32;42048;-71
2024/04/13 01:27:41;;;;;;;2.03;1.92;;;;;;;5.40;87.40;101283.78;4397022;32;42096;-71
2024/04/13 01:30:11;;;;;;;0.10;0.10;;;;;;;5.40;87.49;101281.03;4397035;32;42277;-69
2024/04/13 01:32:40;;;;;;;0.20;0.20;;;;;;;5.41;87.42;101279.91;4397095;32;41702;-68
2024/04/13 01:35:08;;;;;;;1.67;0.88;;;;;;;5.38;87.35;101269.44;4397351;32;41215;-70
2024/04/13 01:37:36;;;;;;;0.30;0.28;;;;;;;5.44;87.33;101284.03;4396780;32;42437;-70
2024/04/13 01:40:04;;;;;;;0.57;0.57;;;;;;;5.43;87.23;101274.91;4396775;32;42162;-69
2024/04/13 01:42:34;;;;;;;2.90;2.67;;;;;;;5.43;87.09;101271.34;4396677;32;42601;-68
2024/04/13 01:45:01;;;;;;;0.37;0.37;;;;;;;5.41;86.86;101276.31;4396855;32;41975;-68
2024/04/13 01:47:29;;;;;;;1.70;1.55;;;;;;;5.21;86.78;101242.25;4396917;32;42078;-69
2024/04/13 01:49:57;;;;;;;0.57;0.57;;;;;;;5.39;86.85;101273.84;4397298;32;42144;-67
2024/04/13 01:52:25;;;;;;;0.68;0.68;;;;;;;5.37;86.84;101267.81;4396832;32;42036;-67
2024/04/13 01:54:53;;;;;;;0.22;0.20;;;;;;;5.38;86.87;101263.09;4383612;32;41987;-68
2024/04/13 01:57:21;;;;;;;1.50;1.27;;;;;;;5.37;86.89;101259.50;4396611;32;42201;-67
2024/04/13 01:59:50;;;;;;;1.00;0.95;;;;;;;5.37;86.82;101256.75;4383585;32;42464;-67
2024/04/13 02:02:19;;;;;;;1.67;1.58;;;;;;;5.35;86.79;101261.75;4396365;32;42045;-68
2024/04/13 02:04:47;;;;;;;0.53;0.53;;;;;;;5.34;86.89;101262.84;4396377;32;42240;-68
2024/04/13 02:07:15;;;;;;;0.30;0.30;;;;;;;5.32;86.97;101256.78;4396658;32;42049;-67
2024/04/13 02:09:43;;;;;;;0.55;0.55;;;;;;;5.31;87.01;101257.91;4396283;32;42280;-68
2024/04/13 02:12:11;;;;;;;0.50;0.50;;;;;;;5.32;86.95;101247.69;4396289;32;42258;-68
2024/04/13 02:14:40;;;;;;;0.30;0.30;;;;;;;5.30;86.93;101253.50;4396178;32;41913;-68
2024/04/13 02:17:09;;;;;;;2.00;1.83;;;;;;;5.30;86.92;101259.84;4396554;32;41988;-67
2024/04/13 02:19:39;;;;;;;3.47;2.72;;;;;;;5.28;86.82;101252.97;4396429;32;42504;-67
2024/04/13 02:22:05;;;;;;;;;;;;;;;5.27;86.94;101251.31;4396482;32;42224;-67
2024/04/13 02:24:33;;;;;;;4.45;4.07;;;;;;;5.14;86.99;101252.84;4396272;32;42243;-68
2024/04/13 02:27:02;;;;;;;4.97;4.37;;;;;;;5.21;86.73;101249.72;4396316;32;42304;-69
2024/04/13 02:29:30;;;;;;;2.58;2.37;;;;;;;5.21;86.68;101249.72;4396266;32;41957;-67
2024/04/13 02:31:57;;;;;;;5.65;4.15;;;;;;;5.23;86.60;101250.25;4395995;32;41896;-68
2024/04/13 02:34:27;;;;;;;1.20;1.10;;;;;;;5.25;86.55;101248.84;4395795;32;42383;-67
2024/04/13 02:36:54;;;;;;;;;;;;;;;5.24;86.46;101251.91;4396167;32;41689;-67
2024/04/13 02:39:22;;;;;;;0.75;0.75;;;;;;;5.14;86.76;101246.50;4395875;32;42328;-66
2024/04/13 02:41:49;;;;;;;0.60;0.60;;;;;;;5.23;86.46;101250.25;4395943;32;41766;-69
2024/04/13 02:44:18;;;;;;;3.83;1.08;;;;;;;5.26;86.40;101246.91;4395870;32;41975;-67
2024/04/13 02:46:45;;;;;;;1.25;1.20;;;;;;;5.29;86.33;101249.09;4395893;32;41927;-68
2024/04/13 02:49:14;;;;;;;0.30;0.30;;;;;;;5.31;86.28;101257.91;4395676;32;41988;-68
2024/04/13 02:51:42;;;;;;;1.30;1.20;;;;;;;5.32;86.22;101253.22;4395363;32;41929;-69
2024/04/13 02:54:10;;;;;;;0.62;0.62;;;;;;;5.32;86.12;101262.31;4395656;32;41927;-67
2024/04/13 02:56:38;;;;;;;1.33;1.27;;;;;;;5.33;86.01;101258.44;4395684;32;41530;-69
2024/04/13 02:59:06;;;;;;;1.67;1.58;;;;;;;5.33;85.94;101261.22;4395859;32;41729;-67
2024/04/13 03:01:33;;;;;;;5.57;5.18;;;;;;;5.36;85.87;101259.81;4407821;32;42178;-69
2024/04/13 03:04:02;;;;;;;3.65;3.40;;;;;;;5.36;85.76;101260.63;4411010;32;41732;-70
2024/04/13 03:06:29;;;;;;;1.95;1.85;;;;;;;5.37;85.64;101256.75;4410936;32;41406;-70
2024/04/13 03:08:59;;;;;;;2.40;2.20;;;;;;;5.39;85.49;101259.22;4410970;32;41961;-69
2024/04/13 03:11:26;;;;;;;1.33;1.23;;;;;;;5.39;85.42;101259.22;4410637;32;42135;-71
2024/04/13 03:13:54;;;;;;;7.35;3.58;;;;;;;5.42;85.40;101261.41;4410833;32;41886;-68
2024/04/13 03:16:24;;;;;;;0.98;0.98;;;;;;;5.44;85.40;101262.75;4410414;32;42001;-66
2024/04/13 03:18:52;;;;;;;0.75;0.68;;;;;;;5.44;85.34;101260.00;4410448;32;41919;-65
2024/04/13 03:21:20;;;;;;;25.40;2.30;;;;;;;5.44;85.25;101262.75;4410656;32;42197;-64
2024/04/13 03:23:48;;;;;;;1.25;1.05;;;;;;;5.46;85.16;101254.16;4410442;32;42206;-64
2024/04/13 03:26:24;;;;;;;1.90;1.80;;;;;;;5.46;84.88;101259.69;4410370;32;41787;-68
2024/04/13 03:28:55;;;;;;;2.83;2.62;;;;;;;5.45;84.61;101253.34;4410697;32;41954;-67
2024/04/13 03:31:22;;;;;;;0.50;0.50;;;;;;;5.44;84.39;101250.87;4410472;32;42052;-67
2024/04/13 03:33:53;;;;;;;1.40;1.30;;;;;;;5.43;84.19;101255.56;4410379;32;41673;-66
2024/04/13 03:40:04;;;;;;;0.25;0.25;;;;;;;5.34;84.10;101251.81;4383770;32;41274;-66
2024/04/13 03:42:35;;;;;;;0.65;0.65;;;;;;;5.37;83.95;101251.22;4410117;32;41799;-67
2024/04/13 03:45:02;;;;;;;;;;;;;;;5.38;83.88;101246.50;4410309;32;41896;-67
2024/04/13 03:47:32;;;;;;;2.05;0.65;;;;;;;5.27;84.15;101252.16;4409741;32;42834;-66
2024/04/13 03:49:59;;;;;;;0.40;0.40;;;;;;;5.39;83.86;101249.00;4410044;32;41718;-65
2024/04/13 03:52:27;;;;;;;1.40;0.68;;;;;;;5.42;83.82;101242.88;4410331;32;42372;-65
2024/04/13 03:54:54;;;;;;;0.73;0.73;;;;;;;5.44;83.79;101246.16;4410045;32;42100;-66
2024/04/13 03:57:22;;;;;;;1.08;1.00;;;;;;;5.47;83.76;101244.75;4410312;32;42069;-68
2024/04/13 03:59:51;;;;;;;0.10;0.10;;;;;;;5.49;83.74;101254.41;4410367;32;41945;-67
2024/04/13 04:02:19;;;;;;;4.50;2.35;;;;;;;5.51;83.73;101246.66;4410292;32;42033;-66
2024/04/13 04:04:46;;;;;;;1.02;0.98;;;;;;;5.54;83.73;101246.06;4412474;32;42076;-68
2024/04/13 04:07:15;;;;;;;0.40;0.40;;;;;;;5.57;83.69;101244.66;4413432;32;42007;-66
2024/04/13 04:09:42;;;;;;;0.20;0.20;;;;;;;5.61;83.68;101243.78;4413537;32;42126;-68
2024/04/13 04:12:11;;;;;;;0.75;0.75;;;;;;;5.63;83.67;101244.31;4413408;32;41778;-67
2024/04/13 04:14:38;;;;;;;0.22;0.22;;;;;;;5.65;83.62;101251.47;4413084;32;41779;-68
2024/04/13 04:17:07;;;;;;;0.50;0.50;;;;;;;5.68;83.48;101250.87;4412989;32;42477;-68
2024/04/13 04:19:35;;;;;;;1.02;1.00;;;;;;;5.67;83.29;101257.53;4412780;32;42210;-68
2024/04/13 04:22:03;;;;;;;1.40;1.30;;;;;;;5.69;82.95;101263.59;4411923;32;42344;-66
2024/04/13 04:24:30;;;;;;;0.65;0.65;;;;;;;5.69;82.97;101274.66;4411892;32;41949;-66
2024/04/13 04:26:59;;;;;;;0.60;0.50;;;;;;;5.70;82.90;101276.28;4412555;32;41982;-66
2024/04/13 04:29:27;;;;;;;0.70;0.70;;;;;;;5.68;82.81;101273.81;4413158;32;41786;-66
2024/04/13 04:31:55;;;;;;;1.25;1.17;;;;;;;5.69;82.68;101274.66;4412806;32;42126;-66
2024/04/13 04:34:24;;;;;;;0.77;0.77;;;;;;;5.67;82.73;101282.41;4413022;32;41974;-65
2024/04/13 04:36:52;;;;;;;1.45;1.33;;;;;;;5.69;82.48;101269.12;4412766;32;41416;-66
2024/04/13 04:39:19;;;;;;;0.70;0.70;;;;;;;5.70;82.39;101276.28;4413053;32;41772;-67
2024/04/13 04:41:48;;;;;;;1.30;1.20;;;;;;;5.73;82.42;101271.00;4412031;32;42090;-68
2024/04/13 04:44:15;;;;;;;0.68;0.68;;;;;;;5.73;82.20;101270.19;4412450;32;42120;-68
2024/04/13 04:46:43;;;;;;;0.60;0.60;;;;;;;5.75;81.68;101274.28;4412651;32;42180;-68
2024/04/13 04:49:10;;;;;;;0.35;0.35;;;;;;;5.75;81.64;101263.25;4412706;32;42211;-68
2024/04/13 04:51:40;;;;;;;0.40;0.37;;;;;;;5.79;81.72;101269.00;4412591;32;42154;-67
2024/04/13 04:54:08;;;;;;;0.55;0.55;;;;;;;5.81;81.49;101267.59;4398759;32;41745;-68
2024/04/13 04:56:36;;;;;;;0.35;0.35;;;;;;;5.88;81.46;101272.72;4397480;32;42102;-67
2024/04/13 04:59:04;;;;;;;1.48;1.05;;;;;;;5.94;81.38;101277.13;4397191;32;42193;-67
2024/04/13 05:01:32;;;;;;;0.85;0.85;;;;;;;6.00;81.25;101275.09;4397191;32;41757;-68
2024/04/13 05:04:00;;;;;;;0.40;0.40;;;;;;;6.04;80.95;101282.53;4397337;32;42010;-67
2024/04/13 05:06:28;;;;;;;0.88;0.88;;;;;;;6.10;nan;101274.97;4397190;32;42174;-68
2024/04/13 05:08:59;;;;;;;0.40;0.40;;;;;;;6.15;80.51;101272.16;4397163;32;42218;-68
2024/04/13 05:11:26;;;;;;;2.50;1.85;;;;;;;6.17;80.04;101265.19;4397095;32;41717;-68
2024/04/13 05:13:54;;;;;;;0.27;0.27;;;;;;;6.22;80.01;101262.38;4396162;32;41674;-67
2024/04/13 05:16:21;;;;;;;1.27;1.23;;;;;;;6.27;79.63;101267.81;4396781;32;42270;-68
2024/04/13 05:18:50;;;;;;;0.28;0.28;;;;;;;6.32;79.40;101266.12;4384043;32;41290;-69
2024/04/13 05:21:17;;;;;;;0.62;0.62;;;;;;;6.34;79.16;101258.34;4396982;32;41768;-71
2024/04/13 05:23:45;;;;;;;1.75;1.65;;;;;;;6.38;79.01;101259.38;4396768;32;42241;-68
2024/04/13 05:26:14;;;;;;;0.15;0.10;;;;;;;6.44;78.64;101252.66;4396964;32;42308;-69
2024/04/13 05:28:42;;;;;;;0.30;0.30;;;;;;;6.49;78.50;101249.81;4396772;32;41755;-69
2024/04/13 05:31:09;;;;;;;0.60;0.50;;;;;;;6.59;78.51;101255.16;4384011;32;41728;-68
2024/04/13 05:33:38;;;;;;;3.92;1.40;;;;;;;6.72;77.94;101254.41;4396561;32;42258;-69
2024/04/13 05:36:05;;;;;;;0.10;0.10;;;;;;;6.86;77.12;101241.44;4396749;32;42059;-69
2024/04/13 05:38:34;;;;;;;2.15;1.55;;;;;;;7.00;76.48;101248.97;4396490;32;42343;-69
2024/04/13 05:41:01;;;;;;;1.17;1.17;;;;;;;7.16;76.34;101247.56;4383243;32;40126;-71
2024/04/13 05:43:31;;;;;;;0.13;0.13;;;;;;;7.41;76.08;101249.84;4396373;32;42090;-68
2024/04/13 05:46:01;;;;;;;;;;;;;;;7.59;74.65;101245.34;4396809;32;42097;-67
2024/04/13 05:48:29;;;;;;;1.23;1.15;;;;;;;7.66;74.52;101234.69;4396369;32;42451;-68
2024/04/13 05:50:58;;;;;;;1.35;1.25;;;;;;;7.95;74.33;101234.34;4396138;32;41771;-68
2024/04/13 05:53:26;;;;;;;5.62;1.65;;;;;;;8.13;73.49;101225.06;4396320;32;41957;-69
2024/04/13 05:55:53;;;;;;;1.23;1.13;;;;;;;8.29;73.27;101224.72;4383255;32;40966;-68
2024/04/13 05:58:22;;;;;;;1.60;1.50;;;;;;;8.38;72.18;101222.88;4396379;32;41695;-69
2024/04/13 06:00:50;;;;;;;0.47;0.40;;;;;;;8.44;71.55;101213.28;4396658;32;41136;-67
2024/04/13 06:03:19;;;;;;;0.10;0.10;;;;;;;8.51;71.29;101210.88;4396200;32;42095;-69
2024/04/13 06:05:46;;;;;;;0.70;0.70;;;;;;;8.64;71.51;101215.56;4396055;32;42101;-70
2024/04/13 06:08:14;;;;;;;0.80;0.77;;;;;;;8.73;70.68;101216.44;4396224;32;41738;-68
2024/04/13 06:10:41;;;;;;;2.83;1.00;;;;;;;8.76;70.29;101207.47;4396188;32;42002;-69
2024/04/13 06:13:09;;;;;;;0.35;0.30;;;;;;;8.81;70.26;101204.56;4396140;32;42335;-69
2024/04/13 06:15:38;;;;;;;0.62;0.45;;;;;;;8.90;70.40;101201.84;4396011;32;42233;-68
2024/04/13 06:18:08;;;;;;;1.17;1.08;;;;;;;8.95;69.38;101203.69;4395985;32;41979;-69
2024/04/13 06:20:34;;;;;;;;;;;;;;;8.94;69.67;101204.81;4396233;32;41798;-68
2024/04/13 06:23:02;;;;;;;0.47;0.47;;;;;;;8.86;70.14;101201.66;4395954;32;42126;-69
2024/04/13 06:25:30;;;;;;;0.88;0.80;;;;;;;9.08;70.03;101198.03;4395692;32;42146;-68
2024/04/13 06:27:58;;;;;;;0.75;0.75;;;;;;;9.21;69.65;101197.09;4395618;32;41558;-68
2024/04/13 06:30:26;;;;;;;0.32;0.32;;;;;;;9.32;69.57;101219.91;4395734;32;42288;-69
2024/04/13 06:32:54;;;;;;;0.22;0.22;;;;;;;9.31;68.08;101212.69;4395509;32;41651;-70
2024/04/13 06:35:23;;;;;;;1.05;1.05;;;;;;;9.26;68.33;101201.72;4395518;32;42244;-69
2024/04/13 06:37:51;;;;;;;5.72;0.45;;;;;;;9.25;68.36;101211.19;4395592;32;42087;-70
2024/04/13 06:40:18;;;;;;;0.50;0.50;;;;;;;9.23;68.12;101199.56;4395597;32;41826;-69
2024/04/13 06:42:46;;;;;;;1.12;1.12;;;;;;;9.27;68.51;101200.56;4395556;32;41925;-70
2024/04/13 06:45:14;;;;;;;1.00;1.00;;;;;;;9.33;68.41;101210.41;4395517;32;42106;-69
2024/04/13 06:47:43;;;;;;;17.83;1.48;;;;;;;9.31;67.98;101207.13;4395685;32;42257;-68
2024/04/13 06:50:10;;;;;;;1.02;0.82;;;;;;;9.27;67.87;101200.56;4395538;32;42087;-67
2024/04/13 06:52:39;;;;;;;1.12;1.02;;;;;;;9.25;68.12;101202.84;4395407;32;41331;-69
2024/04/13 06:55:07;;;;;;;0.77;0.77;;;;;;;9.28;68.22;101198.59;4395447;32;41403;-69
2024/04/13 06:57:35;;;;;;;0.65;0.45;;;;;;;9.30;68.18;101194.38;4395366;32;42162;-68
2024/04/13 07:00:03;;;;;;;9.15;1.48;;;;;;;9.32;68.10;101199.63;4395186;32;42275;-68
2024/04/13 07:02:31;;;;;;;3.20;2.08;;;;;;;9.35;68.00;101199.78;4395704;32;42482;-68
2024/04/13 07:05:11;;;;;;;4.03;3.53;;;;;;;9.38;68.00;101196.37;4395218;32;42409;-70
2024/04/13 07:07:41;;;;;;;5.68;2.87;;;;;;;9.38;68.04;101207.50;4382453;32;40373;-69
2024/04/13 07:10:09;;;;;;;3.92;2.60;;;;;;;9.42;68.14;101194.59;4395454;32;42279;-69
2024/04/13 07:12:37;;;;;;;6.03;3.92;;;;;;;9.45;68.16;101198.69;4395476;32;42336;-70
2024/04/13 07:15:05;;;;;;;1.27;1.05;;;;;;;9.47;68.08;101194.44;4395373;32;42178;-70
2024/04/13 07:17:33;;;;;;;1.95;1.85;;;;;;;9.49;68.06;101194.94;4395358;32;42142;-68
2024/04/13 07:20:04;;;;;;;0.43;0.43;;;;;;;9.56;68.07;101192.53;4395209;32;42220;-69
2024/04/13 07:22:33;;;;;;;1.65;1.45;;;;;;;9.66;67.85;101190.59;4382241;32;40955;-69
2024/04/13 07:25:01;;;;;;;1.58;1.08;;;;;;;9.78;67.59;101187.97;4394977;32;42001;-68
2024/04/13 07:27:30;;;;;;;0.30;0.30;;;;;;;9.93;67.37;101179.19;4395034;32;41954;-68
2024/04/13 07:29:57;;;;;;;0.35;0.35;;;;;;;10.12;67.10;101176.91;4395144;32;41696;-71
2024/04/13 07:32:25;;;;;;;1.67;1.58;;;;;;;10.27;65.87;101164.50;4381782;32;41630;-69
2024/04/13 07:34:52;;;;;;;5.82;1.35;;;;;;;10.42;65.92;101163.16;4394006;32;42120;-70
2024/04/13 07:37:21;;;;;;;1.33;1.05;;;;;;;10.57;65.55;101159.88;4394469;32;41695;-68
2024/04/13 07:39:48;;;;;;;2.23;1.87;;;;;;;10.76;65.18;101168.72;4394923;32;42451;-69
2024/04/13 07:42:18;;;;;;;1.27;1.25;;;;;;;10.83;64.57;101157.88;4395008;32;42287;-69
2024/04/13 07:44:46;;;;;;;0.10;0.10;;;;;;;10.87;63.86;101156.06;4395071;32;42330;-70
2024/04/13 07:47:14;;;;;;;0.88;0.50;;;;;;;10.95;63.81;101156.38;4395007;32;41933;-67
2024/04/13 07:49:41;;;;;;;0.32;0.30;;;;;;;11.07;63.91;101154.50;4394583;32;42077;-69
2024/04/13 07:52:10;;;;;;;1.10;1.05;;;;;;;11.19;63.81;101154.63;4394748;32;42005;-70
2024/04/13 07:54:38;;;;;;;0.95;0.65;;;;;;;11.25;63.48;101158.06;4394814;32;42000;-69
2024/04/13 08:07:56;;;;;;;0.45;0.45;;;;;;;11.17;62.64;101140.22;4314444;33;42115;-67
2024/04/13 08:10:24;;;;;;;23.58;1.12;;;;;;;11.25;62.85;101146.91;4330999;32;42254;-68
2024/04/13 08:12:52;;;;;;;0.52;0.52;;;;;;;11.26;62.87;101145.75;4394616;32;41970;-67
2024/04/13 08:15:19;;;;;;;0.00;0.00;;;;;;;11.21;62.33;101143.16;4380958;32;40456;-68
2024/04/13 08:17:49;;;;;;;3.55;3.22;;;;;;;11.17;62.63;101145.78;4394463;32;42180;-69
2024/04/13 08:20:16;;;;;;;1.87;1.45;;;;;;;11.09;62.51;101140.25;4394379;32;42101;-68
2024/04/13 08:22:44;;;;;;;0.73;0.73;;;;;;;11.04;63.03;101140.44;4394456;32;42230;-69
2024/04/13 08:25:12;;;;;;;2.67;0.73;;;;;;;11.04;62.51;101132.09;4394471;32;41663;-69
2024/04/13 08:27:40;;;;;;;0.22;0.20;;;;;;;11.05;62.50;101131.72;4394679;32;42100;-69
2024/04/13 08:30:07;;;;;;;1.05;1.05;;;;;;;11.08;62.77;101133.84;4394736;32;41409;-70
2024/04/13 08:32:35;;;;;;;0.10;0.10;;;;;;;11.09;62.59;101132.69;4394659;32;42200;-70
2024/04/13 08:35:05;;;;;;;0.47;0.47;;;;;;;11.12;62.49;101131.22;4394394;32;41956;-68
2024/04/13 08:37:34;;;;;;;1.35;0.52;;;;;;;11.13;62.15;101138.44;4394560;32;41983;-69
2024/04/13 08:40:01;;;;;;;0.10;0.10;;;;;;;11.09;62.15;101129.09;4381827;32;40842;-68
2024/04/13 08:42:34;;;;;;;0.30;0.25;;;;;;;11.15;62.38;101133.34;4394553;32;42288;-68
2024/04/13 08:45:04;;;;;;;11.40;1.95;;;;;;;11.17;62.35;101129.06;4381664;32;40076;-68
2024/04/13 08:47:34;;;;;;;9.32;1.17;;;;;;;11.28;62.63;101129.50;4394303;32;41885;-70
2024/04/13 08:50:04;;;;;;;0.20;0.20;;;;;;;11.34;62.30;101122.59;4396971;32;41856;-72
2024/04/13 08:52:33;;;;;;;0.10;0.10;;;;;;;11.40;62.06;101126.81;4397196;32;42315;-68
2024/04/13 08:55:00;;;;;;;0.65;0.22;;;;;;;11.43;61.87;101119.75;4397142;32;42388;-67
2024/04/13 08:57:33;;;;;;;0.45;0.45;;;;;;;11.48;61.72;101119.56;4397093;32;41822;-70
2024/04/13 09:00:02;;;;;;;0.32;0.32;;;;;;;11.53;61.43;101122.97;4397454;32;41973;-70
2024/04/13 09:02:34;;;;;;;0.17;0.17;;;;;;;11.62;61.28;101110.97;4396721;32;42004;-69
2024/04/13 09:05:03;;;;;;;0.22;0.22;;;;;;;11.65;61.18;101110.28;4397053;32;42000;-68
2024/04/13 09:07:33;;;;;;;0.25;0.25;;;;;;;11.74;61.03;101113.81;4396870;32;42072;-68
2024/04/13 09:10:01;;;;;;;0.32;0.32;;;;;;;11.78;60.08;101114.78;4384112;32;41201;-68
2024/04/13 09:12:29;;;;;;;1.27;1.17;;;;;;;11.85;59.65;101103.91;4396913;32;41911;-67
2024/04/13 09:14:57;;;;;;;0.20;0.20;;;;;;;11.89;59.28;101110.44;4383947;32;40449;-67
2024/04/13 09:17:25;;;;;;;0.50;0.50;;;;;;;11.95;59.68;101111.87;4396538;32;41915;-68
2024/04/13 09:19:54;;;;;;;0.10;0.10;;;;;;;11.97;58.85;101106.78;4396567;32;42268;-68
2024/04/13 09:22:25;;;;;;;0.10;0.10;;;;;;;12.09;58.64;101109.66;4396921;32;42141;-68
2024/04/13 09:24:54;;;;;;;10.55;0.95;;;;;;;12.14;58.81;101098.25;4396535;32;42191;-67
2024/04/13 09:27:23;;;;;;;0.10;0.10;;;;;;;12.22;58.72;101095.75;4383203;32;40830;-67
2024/04/13 09:29:50;;;;;;;0.20;0.20;;;;;;;12.25;57.88;101090.28;4396624;32;41922;-69
2024/04/13 09:32:24;;;;;;;0.20;0.20;;;;;;;12.28;58.18;101094.37;4396324;32;42104;-67
2024/04/13 09:34:51;;;;;;;1.77;1.40;;;;;;;12.31;58.18;101090.91;4396611;32;41759;-68
2024/04/13 09:37:20;;;;;;;0.10;0.10;;;;;;;12.36;58.04;101085.88;4396441;32;41591;-69
2024/04/13 09:39:47;;;;;;;0.40;0.40;;;;;;;12.42;57.81;101084.50;4383199;32;41677;-71
2024/04/13 09:42:17;;;;;;;0.90;0.55;;;;;;;12.49;57.07;101081.16;4396236;32;41996;-68
2024/04/13 09:44:45;;;;;;;0.35;0.35;;;;;;;12.52;56.22;101077.66;4396384;32;41952;-68
2024/04/13 09:47:14;;;;;;;0.60;0.52;;;;;;;12.58;56.45;101076.28;4396031;32;41995;-68
2024/04/13 09:49:41;;;;;;;0.28;0.28;;;;;;;12.47;56.07;101047.97;4396011;32;42002;-68
2024/04/13 09:52:10;;;;;;;1.05;0.80;;;;;;;12.68;55.70;101078.66;4395961;32;42142;-70
2024/04/13 09:54:38;;;;;;;0.47;0.47;;;;;;;12.72;55.19;101076.81;4395880;32;41698;-69
2024/04/13 09:57:06;;;;;;;0.77;0.75;;;;;;;12.80;55.01;101077.87;4395493;32;42083;-68
2024/04/13 09:59:38;;;;;;;0.37;0.37;;;;;;;12.89;55.10;101074.97;4395411;32;42538;-68
2024/04/13 10:02:07;;;;;;;0.75;0.43;;;;;;;12.91;55.12;101072.66;4395556;32;42252;-70
2024/04/13 10:04:35;;;;;;;0.20;0.20;;;;;;;12.93;55.18;101064.72;4395665;32;41722;-69
2024/04/13 10:07:06;;;;;;;1.02;0.75;;;;;;;12.93;55.05;101061.94;4395881;32;42014;-68
2024/04/13 10:09:35;;;;;;;1.87;0.28;;;;;;;12.94;54.48;101061.59;4395604;32;41650;-70
2024/04/13 10:12:07;;;;;;;0.93;0.85;;;;;;;12.98;54.55;101067.28;4395765;32;42017;-68
2024/04/13 10:14:41;;;;;;;1.27;0.75;;;;;;;13.00;54.71;101065.75;4395371;32;41703;-68
2024/04/13 10:17:11;;;;;;;0.10;0.10;;;;;;;13.03;54.64;101070.66;4395601;32;41977;-69
2024/04/13 10:19:41;;;;;;;0.70;0.65;;;;;;;13.09;54.55;101068.44;4382905;32;40972;-68
2024/04/13 10:22:10;;;;;;;0.00;0.00;;;;;;;13.14;54.33;101060.63;4395403;32;42106;-69
2024/04/13 10:24:43;;;;;;;0.37;0.37;;;;;;;13.17;53.72;101059.16;4395367;32;42150;-69
2024/04/13 10:27:13;;;;;;;0.60;0.52;;;;;;;13.16;53.58;101060.31;4395615;32;41981;-68
2024/04/13 10:29:48;;;;;;;0.60;0.60;;;;;;;13.18;53.22;101063.59;4396054;32;41985;-67
2024/04/13 10:32:16;;;;;;;0.10;0.10;;;;;;;13.16;53.31;101057.53;4396154;32;41885;-68
2024/04/13 10:34:44;;;;;;;0.10;0.10;;;;;;;13.20;53.33;101058.47;4396410;32;42346;-69
2024/04/13 10:37:25;;;;;;;0.00;0.00;;;;;;;13.23;53.52;101054.16;4396603;32;41810;-71
2024/04/13 10:39:53;;;;;;;0.10;0.10;;;;;;;13.22;53.73;101050.53;4398145;32;41796;-70
2024/04/13 10:42:22;;;;;;;0.20;0.20;;;;;;;13.30;53.61;101058.00;4398505;32;41937;-72
2024/04/13 10:44:50;;;;;;;0.62;0.62;;;;;;;13.27;54.13;101060.66;4396322;32;42211;-71
2024/04/13 10:47:20;;;;;;;0.47;0.47;;;;;;;13.18;55.04;101071.97;4396609;32;42007;-69
2024/04/13 10:49:49;;;;;;;0.80;0.73;;;;;;;13.07;56.44;101076.38;4395736;32;42306;-72
2024/04/13 10:52:19;;;;;;;0.30;0.30;;;;;;;12.95;57.23;101079.19;4396628;32;42072;-70
2024/04/13 10:54:54;;;;;;;0.05;0.05;;;;;;;12.80;58.23;101075.06;4395993;32;42009;-70
2024/04/13 10:57:22;;;;;;;0.90;0.82;;;;;;;12.68;58.77;101083.44;4396009;32;42068;-71
2024/04/13 10:59:51;;;;;;;0.30;0.30;;;;;;;12.60;58.79;101084.34;4395342;32;42099;-70
2024/04/13 11:02:19;;;;;;;0.47;0.47;;;;;;;12.50;58.97;101091.19;4395289;32;42141;-70
2024/04/13 11:04:47;;;;;;;1.75;1.65;;;;;;;12.42;59.34;101094.87;4395297;32;42152;-68
2024/04/13 11:07:16;;;;;;;1.42;1.33;;;;;;;12.36;59.72;101099.03;4395220;32;41903;-69
2024/04/13 11:09:43;;;;;;;0.32;0.32;;;;;;;12.31;60.14;101090.91;4395036;32;41940;-66
2024/04/13 11:12:13;;;;;;;0.10;0.10;;;;;;;12.19;60.79;101092.47;4381535;32;41798;-70
2024/04/13 11:14:41;;;;;;;3.22;2.47;;;;;;;12.06;61.06;101093.56;4395652;32;41645;-72
2024/04/13 11:17:11;;;;;;;0.10;0.10;;;;;;;11.96;61.39;101093.97;4395068;32;42232;-67
2024/04/13 11:19:38;;;;;;;0.10;0.10;;;;;;;11.92;61.61;101097.78;4395145;32;41889;-71
2024/04/13 11:22:09;;;;;;;6.50;2.55;;;;;;;11.89;61.79;101093.69;4394261;32;42000;-70
2024/04/13 11:24:37;;;;;;;0.35;0.35;;;;;;;11.82;61.82;101091.44;4394248;32;42397;-69
2024/04/13 11:27:06;;;;;;;0.50;0.50;;;;;;;11.74;62.17;101097.06;4381926;32;41197;-70
2024/04/13 11:29:34;;;;;;;;;;;;;;;11.66;62.64;101097.97;4395172;32;42272;-68
2024/04/13 11:32:03;;;;;;;0.35;0.35;;;;;;;11.49;63.19;101099.69;4395377;32;42369;-70
2024/04/13 11:34:32;;;;;;;0.43;0.43;;;;;;;11.59;63.18;101094.87;4394628;32;42178;-68
2024/04/13 11:37:03;;;;;;;1.25;1.17;;;;;;;11.63;63.03;101095.84;4394793;32;42066;-71
2024/04/13 11:39:33;;;;;;;0.20;0.20;;;;;;;11.63;63.06;101101.44;4394597;32;42210;-68
2024/04/13 11:42:06;;;;;;;0.68;0.68;;;;;;;11.68;63.05;101098.44;4394665;32;41669;-67
2024/04/13 11:44:33;;;;;;;0.95;0.95;;;;;;;11.73;63.22;101101.00;4394951;32;42014;-68
2024/04/13 11:47:01;;;;;;;0.10;0.10;;;;;;;11.77;63.42;101100.03;4394713;32;42034;-70
2024/04/13 11:49:29;;;;;;;4.03;1.77;;;;;;;11.79;63.55;101094.91;4394664;32;41914;-70
2024/04/13 11:51:59;;;;;;;0.10;0.10;;;;;;;11.72;63.81;101094.59;4394786;32;42046;-69